createdAt,value
2018-02-21T00:01:52.125Z,21.67
2018-02-21T00:04:20.630Z,25.17
2018-02-21T00:06:49.133Z,24.23
2018-02-21T00:09:17.631Z,24.07
2018-02-21T00:11:46.139Z,28.70
2018-02-21T00:14:14.614Z,25.20
2018-02-21T00:16:43.106Z,24.73
2018-02-21T00:19:11.594Z,24.47
2018-02-21T00:21:40.082Z,23.53
2018-02-21T00:24:08.630Z,21.77
2018-02-21T00:26:37.122Z,29.23
2018-02-21T00:29:05.592Z,21.33
2018-02-21T00:31:34.076Z,23.87
2018-02-21T00:34:02.574Z,23.37
2018-02-21T00:36:31.048Z,21.33
2018-02-21T00:38:59.590Z,22.57
2018-02-21T00:41:28.050Z,20.33
2018-02-21T00:43:56.547Z,20.73
2018-02-21T00:46:25.049Z,22.97
2018-02-21T00:48:53.562Z,22.43
2018-02-21T00:51:22.003Z,22.77
2018-02-21T00:53:50.462Z,21.63
2018-02-21T00:56:18.955Z,26.70
2018-02-21T00:58:47.453Z,21.83
2018-02-21T01:01:15.906Z,22.13
2018-02-21T01:03:44.379Z,24.27
2018-02-21T01:06:12.871Z,22.57
2018-02-21T01:08:41.360Z,24.33
2018-02-21T01:11:09.855Z,23.20
2018-02-21T01:13:38.314Z,25.27
2018-02-21T01:16:06.819Z,24.30
2018-02-21T01:18:35.318Z,25.60
2018-02-21T01:21:03.814Z,23.27
2018-02-21T01:23:32.294Z,25.63
2018-02-21T01:26:00.786Z,29.40
2018-02-21T01:28:29.282Z,24.60
2018-02-21T01:30:57.742Z,22.90
2018-02-21T01:33:26.239Z,27.23
2018-02-21T01:35:54.742Z,28.43
2018-02-21T01:38:23.266Z,26.50
2018-02-21T01:40:51.740Z,24.33
2018-02-21T01:43:20.273Z,23.50
2018-02-21T01:45:48.774Z,27.80
2018-02-21T01:48:17.237Z,24.83
2018-02-21T01:50:52.505Z,23.20
2018-02-21T01:53:21.011Z,23.33
2018-02-21T01:55:49.487Z,21.93
2018-02-21T01:58:17.947Z,23.00
2018-02-21T02:00:46.464Z,23.63
2018-02-21T02:03:14.941Z,24.83
2018-02-21T02:05:43.437Z,20.10
2018-02-21T02:08:11.930Z,22.40
2018-02-21T02:10:40.445Z,23.13
2018-02-21T02:13:08.957Z,21.87
2018-02-21T02:15:37.418Z,25.53
2018-02-21T02:18:05.918Z,21.73
2018-02-21T02:20:34.411Z,19.27
2018-02-21T02:23:02.910Z,21.40
2018-02-21T02:25:31.411Z,21.37
2018-02-21T02:27:59.918Z,22.47
2018-02-21T02:30:28.417Z,19.77
2018-02-21T02:32:56.893Z,20.23
2018-02-21T02:35:25.402Z,22.70
2018-02-21T02:37:53.861Z,24.93
2018-02-21T02:40:22.376Z,24.17
2018-02-21T02:42:50.874Z,19.83
2018-02-21T02:45:19.338Z,21.20
2018-02-21T02:47:47.834Z,23.10
2018-02-21T02:50:16.299Z,21.67
2018-02-21T02:52:44.812Z,19.73
2018-02-21T02:55:13.314Z,22.67
2018-02-21T02:57:41.770Z,21.97
2018-02-21T03:00:10.345Z,24.77
2018-02-21T03:02:38.855Z,27.00
2018-02-21T03:05:07.371Z,23.77
2018-02-21T03:07:35.815Z,26.23
2018-02-21T03:10:04.343Z,22.07
2018-02-21T03:12:32.846Z,24.40
2018-02-21T03:15:01.313Z,24.33
2018-02-21T03:17:29.822Z,22.53
2018-02-21T03:19:58.281Z,24.03
2018-02-21T03:22:26.738Z,21.07
2018-02-21T03:24:55.257Z,24.63
2018-02-21T03:27:23.731Z,20.60
2018-02-21T03:29:52.202Z,19.77
2018-02-21T03:32:22.649Z,17.47
2018-02-21T03:34:51.127Z,20.10
2018-02-21T03:37:19.589Z,20.13
2018-02-21T03:39:48.124Z,22.83
2018-02-21T03:42:16.613Z,19.90
2018-02-21T03:44:45.095Z,16.17
2018-02-21T03:47:13.626Z,20.20
2018-02-21T03:49:42.102Z,22.87
2018-02-21T03:52:10.568Z,20.13
2018-02-21T03:54:39.066Z,19.33
2018-02-21T03:57:07.542Z,17.73
2018-02-21T03:59:36.135Z,18.70
2018-02-21T04:02:04.590Z,19.33
2018-02-21T04:04:33.050Z,20.33
2018-02-21T04:07:01.565Z,21.57
2018-02-21T04:09:30.090Z,22.17
2018-02-21T04:11:58.562Z,20.73
2018-02-21T04:14:27.018Z,27.23
2018-02-21T04:16:55.535Z,24.27
2018-02-21T04:19:23.998Z,21.03
2018-02-21T04:21:52.494Z,22.13
2018-02-21T04:24:20.990Z,19.50
2018-02-21T04:26:49.491Z,22.60
2018-02-21T04:29:17.950Z,19.00
2018-02-21T04:31:46.429Z,20.83
2018-02-21T04:34:14.922Z,21.60
2018-02-21T04:36:43.382Z,21.93
2018-02-21T04:39:11.898Z,19.40
2018-02-21T04:41:40.393Z,19.33
2018-02-21T04:44:08.882Z,21.47
2018-02-21T04:46:37.350Z,18.53
2018-02-21T04:49:05.847Z,18.60
2018-02-21T04:51:34.350Z,21.37
2018-02-21T04:54:02.814Z,22.03
2018-02-21T04:56:49.769Z,20.53
2018-02-21T04:59:18.813Z,19.53
2018-02-21T05:01:47.291Z,17.83
2018-02-21T05:04:15.790Z,22.50
2018-02-21T05:06:44.322Z,20.73
2018-02-21T05:09:12.773Z,22.27
2018-02-21T05:11:41.234Z,21.53
2018-02-21T05:14:09.736Z,26.10
2018-02-21T05:16:38.191Z,24.03
2018-02-21T05:19:06.685Z,22.87
2018-02-21T05:21:35.159Z,25.37
2018-02-21T05:24:03.650Z,22.43
2018-02-21T05:26:32.158Z,23.13
2018-02-21T05:29:00.649Z,22.30
2018-02-21T05:31:29.138Z,26.53
2018-02-21T05:33:57.602Z,23.63
2018-02-21T05:36:26.140Z,23.73
2018-02-21T05:38:54.639Z,21.13
2018-02-21T05:41:23.102Z,22.17
2018-02-21T05:43:51.590Z,31.00
2018-02-21T05:46:20.052Z,22.43
2018-02-21T05:48:48.566Z,24.10
2018-02-21T05:51:17.035Z,38.13
2018-02-21T05:53:45.525Z,40.83
2018-02-21T05:56:14.026Z,30.17
2018-02-21T05:58:42.526Z,24.87
2018-02-21T06:01:11.063Z,21.63
2018-02-21T06:03:39.534Z,20.27
2018-02-21T06:06:08.058Z,22.33
2018-02-21T06:08:36.504Z,21.47
2018-02-21T06:11:05.001Z,21.53
2018-02-21T06:13:33.462Z,19.63
2018-02-21T06:16:01.983Z,21.60
2018-02-21T06:18:30.493Z,19.60
2018-02-21T06:20:58.970Z,24.23
2018-02-21T06:23:27.483Z,22.63
2018-02-21T06:25:55.983Z,20.23
2018-02-21T06:28:24.461Z,20.40
2018-02-21T06:30:52.993Z,24.23
2018-02-21T06:33:21.518Z,20.13
2018-02-21T06:35:50.007Z,22.43
2018-02-21T06:38:18.507Z,21.93
2018-02-21T06:40:46.978Z,22.83
2018-02-21T06:43:15.464Z,22.47
2018-02-21T06:45:43.966Z,24.40
2018-02-21T06:48:12.452Z,18.73
2018-02-21T06:50:41.007Z,21.43
2018-02-21T06:53:09.483Z,19.33
2018-02-21T06:55:38.010Z,18.90
2018-02-21T06:58:06.491Z,19.73
2018-02-21T07:00:34.997Z,20.50
2018-02-21T07:03:03.458Z,19.53
2018-02-21T07:05:32.202Z,22.27
2018-02-21T07:08:00.748Z,17.13
2018-02-21T07:10:29.209Z,20.17
2018-02-21T07:12:57.710Z,19.20
2018-02-21T07:15:26.265Z,16.53
2018-02-21T07:17:54.717Z,20.30
2018-02-21T07:20:23.229Z,17.57
2018-02-21T07:22:51.709Z,18.93
2018-02-21T07:25:20.214Z,17.33
2018-02-21T07:27:48.677Z,15.50
2018-02-21T07:30:17.169Z,19.90
2018-02-21T07:32:45.666Z,16.60
2018-02-21T07:35:14.127Z,14.83
2018-02-21T07:37:42.630Z,14.70
2018-02-21T07:40:11.186Z,15.30
2018-02-21T07:42:39.691Z,14.97
2018-02-21T07:45:08.233Z,16.63
2018-02-21T07:47:36.726Z,14.77
2018-02-21T07:50:05.218Z,14.63
2018-02-21T07:52:33.739Z,15.77
2018-02-21T07:55:02.240Z,22.40
2018-02-21T07:57:30.790Z,23.00
2018-02-21T07:59:59.265Z,18.87
2018-02-21T08:02:27.739Z,16.10
2018-02-21T08:04:56.246Z,15.63
2018-02-21T08:07:24.751Z,15.70
2018-02-21T08:09:53.256Z,17.00
2018-02-21T08:12:21.714Z,19.00
2018-02-21T08:14:50.229Z,21.17
2018-02-21T08:17:18.742Z,20.03
2018-02-21T08:19:47.210Z,24.03
2018-02-21T08:22:15.898Z,21.60
2018-02-21T08:24:44.446Z,23.23
2018-02-21T08:27:12.955Z,26.90
2018-02-21T08:29:41.414Z,30.47
2018-02-21T08:32:09.914Z,25.60
2018-02-21T08:34:38.408Z,24.07
2018-02-21T08:37:06.931Z,23.93
2018-02-21T08:39:35.444Z,19.23
2018-02-21T08:42:03.912Z,23.43
2018-02-21T08:44:32.438Z,20.13
2018-02-21T08:47:00.944Z,15.97
2018-02-21T08:49:29.447Z,17.30
2018-02-21T08:51:57.950Z,15.93
2018-02-21T08:54:26.465Z,15.27
2018-02-21T08:56:54.938Z,16.03
2018-02-21T08:59:23.450Z,20.93
2018-02-21T09:01:51.930Z,16.17
2018-02-21T09:04:20.451Z,14.80
2018-02-21T09:06:48.961Z,14.60
2018-02-21T09:09:17.435Z,21.17
2018-02-21T09:11:45.910Z,29.30
2018-02-21T09:14:14.346Z,14.47
2018-02-21T09:16:42.921Z,17.60
2018-02-21T09:19:11.411Z,10.60
2018-02-21T09:21:39.919Z,12.43
2018-02-21T09:24:08.380Z,12.67
2018-02-21T09:26:36.841Z,10.17
2018-02-21T09:29:05.326Z,10.13
2018-02-21T09:31:33.793Z,11.20
2018-02-21T09:34:02.307Z,11.37
2018-02-21T09:36:30.804Z,11.43
2018-02-21T09:38:59.268Z,13.27
2018-02-21T09:41:27.767Z,12.30
2018-02-21T09:43:56.274Z,13.27
2018-02-21T09:46:24.814Z,12.10
2018-02-21T09:48:53.259Z,12.97
2018-02-21T09:51:21.789Z,12.30
2018-02-21T09:53:50.249Z,11.03
2018-02-21T09:56:18.714Z,12.50
2018-02-21T09:58:47.178Z,13.50
2018-02-21T10:01:15.736Z,12.43
2018-02-21T10:03:44.207Z,13.10
2018-02-21T10:06:12.713Z,13.93
2018-02-21T10:08:41.210Z,12.80
2018-02-21T10:11:09.671Z,19.20
2018-02-21T10:13:38.193Z,16.13
2018-02-21T10:16:06.666Z,11.03
2018-02-21T10:18:35.165Z,10.90
2018-02-21T10:21:03.663Z,10.87
2018-02-21T10:23:32.125Z,13.67
2018-02-21T10:26:00.636Z,10.90
2018-02-21T10:28:29.096Z,10.20
2018-02-21T10:30:57.575Z,12.13
2018-02-21T10:33:26.082Z,13.43
2018-02-21T10:35:54.571Z,11.93
2018-02-21T10:38:23.085Z,10.70
2018-02-21T10:40:51.550Z,12.20
2018-02-21T10:43:20.046Z,10.33
2018-02-21T10:45:48.548Z,10.57
2018-02-21T10:48:17.012Z,11.03
2018-02-21T10:50:45.790Z,11.27
2018-02-21T10:53:14.250Z,11.13
2018-02-21T10:55:42.758Z,13.13
2018-02-21T10:58:12.110Z,11.77
2018-02-21T11:00:46.187Z,15.83
2018-02-21T11:03:14.658Z,19.10
2018-02-21T11:05:43.165Z,18.30
2018-02-21T11:08:11.688Z,22.67
2018-02-21T11:10:40.217Z,18.20
2018-02-21T11:13:08.681Z,12.83
2018-02-21T11:15:37.147Z,13.33
2018-02-21T11:18:05.639Z,11.60
2018-02-21T11:20:34.104Z,14.77
2018-02-21T11:23:02.629Z,13.33
2018-02-21T11:25:31.101Z,11.50
2018-02-21T11:27:59.921Z,10.87
2018-02-21T11:30:28.384Z,11.57
2018-02-21T11:32:56.922Z,10.90
2018-02-21T11:35:25.444Z,12.40
2018-02-21T11:37:53.990Z,12.93
2018-02-21T11:40:22.464Z,14.07
2018-02-21T11:42:50.970Z,13.33
2018-02-21T11:45:19.466Z,15.03
2018-02-21T11:47:47.923Z,18.13
2018-02-21T11:50:16.422Z,19.87
2018-02-21T11:52:44.918Z,18.27
2018-02-21T11:55:13.382Z,24.93
2018-02-21T11:57:41.884Z,15.63
2018-02-21T12:00:10.418Z,14.90
2018-02-21T12:02:38.987Z,22.23
2018-02-21T12:05:07.493Z,25.57
2018-02-21T12:07:35.993Z,26.23
2018-02-21T12:10:04.498Z,20.27
2018-02-21T12:12:33.065Z,19.17
2018-02-21T12:15:01.567Z,25.20
2018-02-21T12:17:30.076Z,21.53
2018-02-21T12:19:58.575Z,18.83
2018-02-21T12:22:27.045Z,19.80
2018-02-21T12:24:55.556Z,20.23
2018-02-21T12:27:24.028Z,18.60
2018-02-21T12:29:52.538Z,22.63
2018-02-21T12:32:24.392Z,22.00
2018-02-21T12:34:52.912Z,22.43
2018-02-21T12:37:21.379Z,23.87
2018-02-21T12:39:49.918Z,22.33
2018-02-21T12:42:18.401Z,27.40
2018-02-21T12:44:46.884Z,24.57
2018-02-21T12:47:15.363Z,22.70
2018-02-21T12:49:43.867Z,26.10
2018-02-21T12:52:12.334Z,21.13
2018-02-21T12:54:40.872Z,22.53
2018-02-21T12:57:09.367Z,22.40
2018-02-21T12:59:37.842Z,23.47
2018-02-21T13:02:06.310Z,23.77
2018-02-21T13:04:34.814Z,25.77
2018-02-21T13:07:03.327Z,22.67
2018-02-21T13:09:31.822Z,24.43
2018-02-21T13:12:00.296Z,24.63
2018-02-21T13:14:28.838Z,22.87
2018-02-21T13:16:57.309Z,24.87
2018-02-21T13:19:25.811Z,22.10
2018-02-21T13:21:54.260Z,24.97
2018-02-21T13:24:22.754Z,29.33
2018-02-21T13:26:51.231Z,21.50
2018-02-21T13:29:19.695Z,24.17
2018-02-21T13:31:48.197Z,25.53
2018-02-21T13:34:16.664Z,22.77
2018-02-21T13:36:45.163Z,25.63
2018-02-21T13:39:13.676Z,28.50
2018-02-21T13:41:42.166Z,33.87
2018-02-21T13:44:10.638Z,28.97
2018-02-21T13:46:39.122Z,24.50
2018-02-21T13:49:07.635Z,24.33
2018-02-21T13:51:36.098Z,24.30
2018-02-21T13:54:04.614Z,24.87
2018-02-21T13:56:33.114Z,23.03
2018-02-21T13:59:01.614Z,23.73
2018-02-21T14:01:30.076Z,25.93
2018-02-21T14:03:58.586Z,26.97
2018-02-21T14:06:27.046Z,30.03
2018-02-21T14:08:55.514Z,23.00
2018-02-21T14:11:23.999Z,23.60
2018-02-21T14:13:52.461Z,26.13
2018-02-21T14:16:20.970Z,24.50
2018-02-21T14:18:49.437Z,24.37
2018-02-21T14:21:17.978Z,23.27
2018-02-21T14:23:46.439Z,20.70
2018-02-21T14:26:14.967Z,23.73
2018-02-21T14:28:43.490Z,22.87
2018-02-21T14:31:12.009Z,24.77
2018-02-21T14:33:40.510Z,22.43
2018-02-21T14:36:08.974Z,20.77
2018-02-21T14:38:37.468Z,20.97
2018-02-21T14:41:05.920Z,18.93
2018-02-21T14:43:34.434Z,21.00
2018-02-21T14:46:02.936Z,19.77
2018-02-21T14:48:31.410Z,20.07
2018-02-21T14:50:59.906Z,21.27
2018-02-21T14:53:28.414Z,19.27
2018-02-21T14:55:56.937Z,22.20
2018-02-21T14:58:25.449Z,20.33
2018-02-21T15:00:53.928Z,18.63
2018-02-21T15:03:22.418Z,22.73
2018-02-21T15:05:50.891Z,21.20
2018-02-21T15:08:19.394Z,20.00
2018-02-21T15:10:47.886Z,22.07
2018-02-21T15:13:16.380Z,19.27
2018-02-21T15:15:44.846Z,21.37
2018-02-21T15:18:13.357Z,21.67
2018-02-21T15:20:41.898Z,20.90
2018-02-21T15:23:10.351Z,20.10
2018-02-21T15:25:38.814Z,20.80
2018-02-21T15:28:07.362Z,20.73
2018-02-21T15:30:35.838Z,21.60
2018-02-21T15:33:04.337Z,21.37
2018-02-21T15:35:32.790Z,23.67
2018-02-21T15:38:01.286Z,20.80
2018-02-21T15:40:29.814Z,21.83
2018-02-21T15:42:58.318Z,23.80
2018-02-21T15:45:26.777Z,29.07
2018-02-21T15:47:55.267Z,40.10
2018-02-21T15:50:23.783Z,35.13
2018-02-21T15:52:52.277Z,36.80
2018-02-21T15:55:20.733Z,30.87
2018-02-21T15:57:49.230Z,24.00
2018-02-21T16:00:17.686Z,23.80
2018-02-21T16:02:46.187Z,25.50
2018-02-21T16:05:14.651Z,25.67
2018-02-21T16:07:43.158Z,22.07
2018-02-21T16:10:11.623Z,19.90
2018-02-21T16:12:40.097Z,21.37
2018-02-21T16:15:08.606Z,21.03
2018-02-21T16:17:37.082Z,26.23
2018-02-21T16:20:05.543Z,22.77
2018-02-21T16:22:34.086Z,20.83
2018-02-21T16:25:02.556Z,21.50
2018-02-21T16:27:31.054Z,25.83
2018-02-21T16:29:59.524Z,30.63
2018-02-21T16:32:28.042Z,28.03
2018-02-21T16:34:56.534Z,30.90
2018-02-21T16:37:25.039Z,29.00
2018-02-21T16:39:53.498Z,26.03
2018-02-21T16:42:21.956Z,25.83
2018-02-21T16:44:50.453Z,22.43
2018-02-21T16:47:18.911Z,25.70
2018-02-21T16:49:47.366Z,39.53
2018-02-21T16:52:15.855Z,34.90
2018-02-21T16:54:44.314Z,41.63
2018-02-21T16:57:12.824Z,33.70
2018-02-21T16:59:41.281Z,33.53
2018-02-21T17:02:09.762Z,24.77
2018-02-21T17:04:38.266Z,25.97
2018-02-21T17:07:06.762Z,23.17
2018-02-21T17:09:35.228Z,22.40
2018-02-21T17:12:03.737Z,23.10
2018-02-21T17:14:32.193Z,20.73
2018-02-21T17:17:00.671Z,23.67
2018-02-21T17:19:29.170Z,22.63
2018-02-21T17:21:57.647Z,26.27
2018-02-21T17:24:26.155Z,29.97
2018-02-21T17:26:54.626Z,22.00
2018-02-21T17:29:23.122Z,19.27
2018-02-21T17:31:51.665Z,25.50
2018-02-21T17:34:20.125Z,23.70
2018-02-21T17:36:48.607Z,22.63
2018-02-21T17:39:17.101Z,24.10
2018-02-21T17:41:45.566Z,21.17
2018-02-21T17:44:14.057Z,20.43
2018-02-21T17:46:42.549Z,20.43
2018-02-21T17:49:11.045Z,21.40
2018-02-21T17:51:39.506Z,20.13
2018-02-21T17:54:08.010Z,20.87
2018-02-21T17:56:36.512Z,22.37
2018-02-21T17:59:05.008Z,23.13
2018-02-21T18:01:33.465Z,23.47
2018-02-21T18:04:01.961Z,23.80
2018-02-21T18:06:30.421Z,25.43
2018-02-21T18:08:58.929Z,29.40
2018-02-21T18:11:27.386Z,53.33
2018-02-21T18:13:55.893Z,37.03
2018-02-21T18:16:24.412Z,24.23
2018-02-21T18:18:52.892Z,29.83
2018-02-21T18:21:26.845Z,29.27
2018-02-21T18:23:55.307Z,29.93
2018-02-21T18:26:23.794Z,32.10
2018-02-21T18:28:52.293Z,44.87
2018-02-21T18:31:20.807Z,34.90
2018-02-21T18:33:49.263Z,33.50
2018-02-21T18:36:17.783Z,31.30
2018-02-21T18:38:46.282Z,37.73
2018-02-21T18:41:14.734Z,29.83
2018-02-21T18:43:43.226Z,29.43
2018-02-21T18:46:11.694Z,30.73
2018-02-21T18:48:40.189Z,29.20
2018-02-21T18:51:08.694Z,28.57
2018-02-21T18:53:37.233Z,25.33
2018-02-21T18:56:05.730Z,25.23
2018-02-21T18:58:34.226Z,26.37
2018-02-21T19:01:03.668Z,30.17
2018-02-21T19:03:32.206Z,25.43
2018-02-21T19:06:00.715Z,23.80
2018-02-21T19:08:29.214Z,36.00
2018-02-21T19:10:57.719Z,30.90
2018-02-21T19:13:26.182Z,30.90
2018-02-21T19:15:54.641Z,29.97
2018-02-21T19:18:23.141Z,31.17
2018-02-21T19:20:51.624Z,29.27
2018-02-21T19:23:20.122Z,27.57
2018-02-21T19:25:48.614Z,28.40
2018-02-21T19:28:17.117Z,29.07
2018-02-21T19:30:45.570Z,29.40
2018-02-21T19:33:14.046Z,29.53
2018-02-21T19:35:42.554Z,29.20
2018-02-21T19:38:11.015Z,28.73
2018-02-21T19:40:39.527Z,36.13
2018-02-21T19:43:08.032Z,33.47
2018-02-21T19:45:36.499Z,28.00
2018-02-21T19:48:04.986Z,31.83
2018-02-21T19:50:34.377Z,30.40
2018-02-21T19:53:02.837Z,26.13
2018-02-21T19:55:31.329Z,30.93
2018-02-21T19:57:59.833Z,31.13
2018-02-21T20:00:28.285Z,27.30
2018-02-21T20:02:56.748Z,30.40
2018-02-21T20:05:25.251Z,32.93
2018-02-21T20:07:53.745Z,26.80
2018-02-21T20:10:22.241Z,25.13
2018-02-21T20:12:50.750Z,23.90
2018-02-21T20:15:19.269Z,23.10
2018-02-21T20:17:47.726Z,20.40
2018-02-21T20:20:16.186Z,26.20
2018-02-21T20:22:44.690Z,20.80
2018-02-21T20:25:13.160Z,18.73
2018-02-21T20:27:41.668Z,19.63
2018-02-21T20:30:10.178Z,19.93
2018-02-21T20:32:38.652Z,23.17
2018-02-21T20:35:07.154Z,21.03
2018-02-21T20:37:35.646Z,17.63
2018-02-21T20:40:04.106Z,19.20
2018-02-21T20:42:32.593Z,18.00
2018-02-21T20:45:01.068Z,18.30
2018-02-21T20:47:29.569Z,19.67
2018-02-21T20:49:58.083Z,20.83
2018-02-21T20:52:26.547Z,18.23
2018-02-21T20:54:55.050Z,18.13
2018-02-21T20:57:23.524Z,18.87
2018-02-21T20:59:52.027Z,19.80
2018-02-21T21:02:20.503Z,18.13
2018-02-21T21:04:49.046Z,21.07
2018-02-21T21:07:17.556Z,20.50
2018-02-21T21:09:46.062Z,18.10
2018-02-21T21:12:14.557Z,17.70
2018-02-21T21:14:43.063Z,16.83
2018-02-21T21:17:11.565Z,16.10
2018-02-21T21:19:40.029Z,17.43
2018-02-21T21:22:08.526Z,17.77
2018-02-21T21:24:37.010Z,15.70
2018-02-21T21:27:05.506Z,17.10
2018-02-21T21:29:33.970Z,19.13
2018-02-21T21:32:02.475Z,17.50
2018-02-21T21:34:30.958Z,18.20
2018-02-21T21:36:59.466Z,18.60
2018-02-21T21:39:27.927Z,19.70
2018-02-21T21:41:56.403Z,23.43
2018-02-21T21:44:24.897Z,19.70
2018-02-21T21:46:53.389Z,20.93
2018-02-21T21:49:21.907Z,20.03
2018-02-21T21:51:50.371Z,17.30
2018-02-21T21:54:18.869Z,17.07
2018-02-21T21:56:47.325Z,16.30
2018-02-21T21:59:15.894Z,16.50
2018-02-21T22:01:44.335Z,14.67
2018-02-21T22:04:12.859Z,14.90
2018-02-21T22:06:41.322Z,14.13
2018-02-21T22:09:09.792Z,13.97
2018-02-21T22:11:38.302Z,14.43
2018-02-21T22:14:06.779Z,14.50
2018-02-21T22:16:35.278Z,15.20
2018-02-21T22:19:03.770Z,14.97
2018-02-21T22:21:32.234Z,14.77
2018-02-21T22:24:00.774Z,19.27
2018-02-21T22:26:29.266Z,15.00
2018-02-21T22:28:57.774Z,15.70
2018-02-21T22:31:26.285Z,17.03
2018-02-21T22:33:54.746Z,17.17
2018-02-21T22:36:23.246Z,17.90
2018-02-21T22:38:51.705Z,19.40
2018-02-21T22:41:20.194Z,17.73
2018-02-21T22:43:48.654Z,18.80
2018-02-21T22:46:17.150Z,18.17
2018-02-21T22:48:45.645Z,18.93
2018-02-21T22:51:14.102Z,19.07
2018-02-21T22:53:42.561Z,18.27
2018-02-21T22:56:11.066Z,20.23
2018-02-21T22:58:39.580Z,18.43
2018-02-21T23:01:08.039Z,17.73
2018-02-21T23:03:36.522Z,16.77
2018-02-21T23:06:05.022Z,16.30
2018-02-21T23:08:33.510Z,15.80
2018-02-21T23:11:02.023Z,14.63
2018-02-21T23:13:30.478Z,14.47
2018-02-21T23:15:58.982Z,14.47
2018-02-21T23:18:27.458Z,15.17
2018-02-21T23:20:55.951Z,15.00
2018-02-21T23:23:24.401Z,13.77
2018-02-21T23:25:53.781Z,13.13
2018-02-21T23:28:22.236Z,14.33
2018-02-21T23:30:50.744Z,14.70
2018-02-21T23:33:19.206Z,12.47
2018-02-21T23:35:47.682Z,13.67
2018-02-21T23:38:16.137Z,15.90
2018-02-21T23:40:44.619Z,14.07
2018-02-21T23:43:13.118Z,14.43
2018-02-21T23:45:41.589Z,13.70
2018-02-21T23:48:10.073Z,15.17
2018-02-21T23:50:38.571Z,18.03
2018-02-21T23:53:07.033Z,14.20
2018-02-21T23:55:35.522Z,14.37
2018-02-21T23:58:03.982Z,12.47
